sensor_id;sensor_type;location;lat;lon;timestamp;P1;durP1;ratioP1;P2;durP2;ratioP2
84877;SDS011;75140;47.754;8.840;2024-03-29T00:02:22;2.53;;;1.65;;
84877;SDS011;75140;47.754;8.840;2024-03-29T00:04:47;4.68;;;2.10;;
84877;SDS011;75140;47.754;8.840;2024-03-29T00:07:13;4.53;;;1.93;;
84877;SDS011;75140;47.754;8.840;2024-03-29T00:09:38;5.83;;;2.10;;
84877;SDS011;75140;47.754;8.840;2024-03-29T00:12:04;2.43;;;1.70;;
84877;SDS011;75140;47.754;8.840;2024-03-29T00:14:31;4.88;;;2.17;;
84877;SDS011;75140;47.754;8.840;2024-03-29T00:16:56;3.40;;;2.22;;
84877;SDS011;75140;47.754;8.840;2024-03-29T00:19:22;4.00;;;2.23;;
84877;SDS011;75140;47.754;8.840;2024-03-29T00:21:47;4.00;;;2.13;;
84877;SDS011;75140;47.754;8.840;2024-03-29T00:24:12;5.07;;;2.80;;
84877;SDS011;75140;47.754;8.840;2024-03-29T00:26:38;3.77;;;1.77;;
84877;SDS011;75140;47.754;8.840;2024-03-29T00:29:03;3.63;;;1.80;;
84877;SDS011;75140;47.754;8.840;2024-03-29T00:31:28;3.83;;;2.40;;
84877;SDS011;75140;47.754;8.840;2024-03-29T00:33:54;4.30;;;2.57;;
84877;SDS011;75140;47.754;8.840;2024-03-29T00:36:19;2.43;;;1.73;;
84877;SDS011;75140;47.754;8.840;2024-03-29T00:38:44;3.73;;;1.80;;
84877;SDS011;75140;47.754;8.840;2024-03-29T00:41:10;2.67;;;1.53;;
84877;SDS011;75140;47.754;8.840;2024-03-29T00:43:35;2.87;;;1.90;;
84877;SDS011;75140;47.754;8.840;2024-03-29T00:46:00;2.97;;;1.90;;
84877;SDS011;75140;47.754;8.840;2024-03-29T00:48:26;5.00;;;2.00;;
84877;SDS011;75140;47.754;8.840;2024-03-29T00:50:51;4.85;;;1.83;;
84877;SDS011;75140;47.754;8.840;2024-03-29T00:53:17;4.70;;;1.85;;
84877;SDS011;75140;47.754;8.840;2024-03-29T00:55:42;2.40;;;1.90;;
84877;SDS011;75140;47.754;8.840;2024-03-29T00:58:08;3.15;;;1.90;;
84877;SDS011;75140;47.754;8.840;2024-03-29T01:00:34;3.22;;;2.22;;
84877;SDS011;75140;47.754;8.840;2024-03-29T01:03:00;6.22;;;2.72;;
84877;SDS011;75140;47.754;8.840;2024-03-29T01:05:25;2.67;;;2.03;;
84877;SDS011;75140;47.754;8.840;2024-03-29T01:07:50;2.53;;;2.10;;
84877;SDS011;75140;47.754;8.840;2024-03-29T01:10:16;3.30;;;2.40;;
84877;SDS011;75140;47.754;8.840;2024-03-29T01:12:41;5.18;;;2.00;;
84877;SDS011;75140;47.754;8.840;2024-03-29T01:15:07;2.93;;;2.03;;
84877;SDS011;75140;47.754;8.840;2024-03-29T01:17:32;3.55;;;2.75;;
84877;SDS011;75140;47.754;8.840;2024-03-29T01:19:58;2.22;;;1.52;;
84877;SDS011;75140;47.754;8.840;2024-03-29T01:22:23;3.63;;;2.37;;
84877;SDS011;75140;47.754;8.840;2024-03-29T01:24:48;2.90;;;1.97;;
84877;SDS011;75140;47.754;8.840;2024-03-29T01:27:14;2.30;;;1.40;;
84877;SDS011;75140;47.754;8.840;2024-03-29T01:29:39;3.33;;;1.55;;
84877;SDS011;75140;47.754;8.840;2024-03-29T01:32:05;2.57;;;1.60;;
84877;SDS011;75140;47.754;8.840;2024-03-29T01:34:31;2.40;;;1.60;;
84877;SDS011;75140;47.754;8.840;2024-03-29T01:36:56;4.03;;;1.63;;
84877;SDS011;75140;47.754;8.840;2024-03-29T01:39:21;3.97;;;1.60;;
84877;SDS011;75140;47.754;8.840;2024-03-29T01:41:51;2.25;;;1.50;;
84877;SDS011;75140;47.754;8.840;2024-03-29T01:44:17;3.10;;;1.60;;
84877;SDS011;75140;47.754;8.840;2024-03-29T01:46:42;4.90;;;2.00;;
84877;SDS011;75140;47.754;8.840;2024-03-29T01:49:09;3.55;;;1.70;;
84877;SDS011;75140;47.754;8.840;2024-03-29T01:51:36;2.25;;;1.65;;
84877;SDS011;75140;47.754;8.840;2024-03-29T01:54:05;2.47;;;1.40;;
84877;SDS011;75140;47.754;8.840;2024-03-29T01:56:31;2.17;;;1.48;;
84877;SDS011;75140;47.754;8.840;2024-03-29T01:58:57;2.75;;;2.00;;
84877;SDS011;75140;47.754;8.840;2024-03-29T02:01:24;4.07;;;1.90;;
84877;SDS011;75140;47.754;8.840;2024-03-29T02:03:51;3.10;;;1.70;;
84877;SDS011;75140;47.754;8.840;2024-03-29T02:06:17;2.92;;;1.40;;
84877;SDS011;75140;47.754;8.840;2024-03-29T02:08:43;1.85;;;1.30;;
84877;SDS011;75140;47.754;8.840;2024-03-29T02:11:09;3.55;;;2.03;;
84877;SDS011;75140;47.754;8.840;2024-03-29T02:13:34;4.25;;;2.15;;
84877;SDS011;75140;47.754;8.840;2024-03-29T02:16:00;2.05;;;1.55;;
84877;SDS011;75140;47.754;8.840;2024-03-29T02:18:25;1.67;;;1.50;;
84877;SDS011;75140;47.754;8.840;2024-03-29T02:20:51;4.50;;;1.90;;
84877;SDS011;75140;47.754;8.840;2024-03-29T02:23:18;3.88;;;2.40;;
84877;SDS011;75140;47.754;8.840;2024-03-29T02:25:45;5.43;;;1.90;;
84877;SDS011;75140;47.754;8.840;2024-03-29T02:28:11;2.55;;;1.88;;
84877;SDS011;75140;47.754;8.840;2024-03-29T02:30:37;3.90;;;2.20;;
84877;SDS011;75140;47.754;8.840;2024-03-29T02:33:03;2.90;;;1.73;;
84877;SDS011;75140;47.754;8.840;2024-03-29T02:35:28;3.50;;;2.28;;
84877;SDS011;75140;47.754;8.840;2024-03-29T02:37:54;2.83;;;1.80;;
84877;SDS011;75140;47.754;8.840;2024-03-29T02:40:19;4.57;;;1.58;;
84877;SDS011;75140;47.754;8.840;2024-03-29T02:42:47;3.25;;;1.70;;
84877;SDS011;75140;47.754;8.840;2024-03-29T02:45:13;3.97;;;1.92;;
84877;SDS011;75140;47.754;8.840;2024-03-29T02:47:38;2.43;;;1.70;;
84877;SDS011;75140;47.754;8.840;2024-03-29T02:50:05;2.93;;;2.10;;
84877;SDS011;75140;47.754;8.840;2024-03-29T02:52:31;3.08;;;1.52;;
84877;SDS011;75140;47.754;8.840;2024-03-29T02:54:56;2.45;;;1.85;;
84877;SDS011;75140;47.754;8.840;2024-03-29T02:57:21;4.03;;;2.07;;
84877;SDS011;75140;47.754;8.840;2024-03-29T02:59:47;2.13;;;1.73;;
84877;SDS011;75140;47.754;8.840;2024-03-29T03:02:12;3.07;;;2.07;;
84877;SDS011;75140;47.754;8.840;2024-03-29T03:04:37;3.73;;;2.00;;
84877;SDS011;75140;47.754;8.840;2024-03-29T03:07:03;2.23;;;1.77;;
84877;SDS011;75140;47.754;8.840;2024-03-29T03:09:47;6.13;;;2.78;;
84877;SDS011;75140;47.754;8.840;2024-03-29T03:12:31;2.35;;;1.60;;
84877;SDS011;75140;47.754;8.840;2024-03-29T03:14:57;2.53;;;2.00;;
84877;SDS011;75140;47.754;8.840;2024-03-29T03:17:23;3.38;;;1.55;;
84877;SDS011;75140;47.754;8.840;2024-03-29T03:19:50;2.83;;;1.90;;
84877;SDS011;75140;47.754;8.840;2024-03-29T03:22:17;3.13;;;1.70;;
84877;SDS011;75140;47.754;8.840;2024-03-29T03:24:42;4.35;;;1.88;;
84877;SDS011;75140;47.754;8.840;2024-03-29T03:27:07;3.17;;;1.97;;
84877;SDS011;75140;47.754;8.840;2024-03-29T03:29:33;2.03;;;1.37;;
84877;SDS011;75140;47.754;8.840;2024-03-29T03:31:58;3.13;;;2.10;;
84877;SDS011;75140;47.754;8.840;2024-03-29T03:34:23;3.33;;;1.90;;
84877;SDS011;75140;47.754;8.840;2024-03-29T03:36:49;3.07;;;1.93;;
84877;SDS011;75140;47.754;8.840;2024-03-29T03:39:14;3.23;;;2.20;;
84877;SDS011;75140;47.754;8.840;2024-03-29T03:41:39;4.23;;;1.83;;
84877;SDS011;75140;47.754;8.840;2024-03-29T03:44:05;4.50;;;1.67;;
84877;SDS011;75140;47.754;8.840;2024-03-29T03:46:30;2.83;;;1.60;;
84877;SDS011;75140;47.754;8.840;2024-03-29T03:48:55;2.77;;;1.60;;
84877;SDS011;75140;47.754;8.840;2024-03-29T03:51:21;1.53;;;1.20;;
84877;SDS011;75140;47.754;8.840;2024-03-29T03:53:46;2.13;;;1.53;;
84877;SDS011;75140;47.754;8.840;2024-03-29T03:56:11;2.23;;;1.50;;
84877;SDS011;75140;47.754;8.840;2024-03-29T03:58:37;3.97;;;1.20;;
84877;SDS011;75140;47.754;8.840;2024-03-29T04:01:05;1.88;;;1.50;;
84877;SDS011;75140;47.754;8.840;2024-03-29T04:03:31;2.67;;;1.35;;
84877;SDS011;75140;47.754;8.840;2024-03-29T04:05:56;2.30;;;1.30;;
84877;SDS011;75140;47.754;8.840;2024-03-29T04:08:22;1.67;;;1.05;;
84877;SDS011;75140;47.754;8.840;2024-03-29T04:10:47;2.67;;;1.20;;
84877;SDS011;75140;47.754;8.840;2024-03-29T04:13:13;2.20;;;1.23;;
84877;SDS011;75140;47.754;8.840;2024-03-29T04:15:38;2.05;;;1.50;;
84877;SDS011;75140;47.754;8.840;2024-03-29T04:18:03;2.40;;;1.40;;
84877;SDS011;75140;47.754;8.840;2024-03-29T04:20:29;4.13;;;1.52;;
84877;SDS011;75140;47.754;8.840;2024-03-29T04:22:54;1.83;;;1.17;;
84877;SDS011;75140;47.754;8.840;2024-03-29T04:25:20;1.40;;;1.30;;
84877;SDS011;75140;47.754;8.840;2024-03-29T04:27:45;1.77;;;1.15;;
84877;SDS011;75140;47.754;8.840;2024-03-29T04:30:10;1.87;;;1.40;;
84877;SDS011;75140;47.754;8.840;2024-03-29T04:32:36;2.50;;;1.27;;
84877;SDS011;75140;47.754;8.840;2024-03-29T04:35:01;1.40;;;1.17;;
84877;SDS011;75140;47.754;8.840;2024-03-29T04:37:27;2.05;;;1.08;;
84877;SDS011;75140;47.754;8.840;2024-03-29T04:39:52;3.63;;;1.40;;
84877;SDS011;75140;47.754;8.840;2024-03-29T04:42:18;2.45;;;1.40;;
84877;SDS011;75140;47.754;8.840;2024-03-29T04:44:43;3.17;;;1.27;;
84877;SDS011;75140;47.754;8.840;2024-03-29T04:47:08;3.60;;;1.27;;
84877;SDS011;75140;47.754;8.840;2024-03-29T04:49:34;2.22;;;1.65;;
84877;SDS011;75140;47.754;8.840;2024-03-29T04:52:02;3.15;;;1.45;;
84877;SDS011;75140;47.754;8.840;2024-03-29T04:54:28;2.15;;;1.30;;
84877;SDS011;75140;47.754;8.840;2024-03-29T04:56:53;4.60;;;1.40;;
84877;SDS011;75140;47.754;8.840;2024-03-29T04:59:19;2.00;;;1.20;;
84877;SDS011;75140;47.754;8.840;2024-03-29T05:01:46;2.65;;;1.40;;
84877;SDS011;75140;47.754;8.840;2024-03-29T05:04:18;2.67;;;1.58;;
84877;SDS011;75140;47.754;8.840;2024-03-29T05:06:50;1.90;;;1.40;;
84877;SDS011;75140;47.754;8.840;2024-03-29T05:09:25;2.67;;;1.40;;
84877;SDS011;75140;47.754;8.840;2024-03-29T05:11:50;3.10;;;1.30;;
84877;SDS011;75140;47.754;8.840;2024-03-29T05:14:16;3.30;;;0.93;;
84877;SDS011;75140;47.754;8.840;2024-03-29T05:16:47;1.45;;;1.02;;
84877;SDS011;75140;47.754;8.840;2024-03-29T05:19:13;3.13;;;1.83;;
84877;SDS011;75140;47.754;8.840;2024-03-29T05:21:40;1.92;;;1.10;;
84877;SDS011;75140;47.754;8.840;2024-03-29T05:24:06;4.05;;;1.05;;
84877;SDS011;75140;47.754;8.840;2024-03-29T05:26:32;2.45;;;1.10;;
84877;SDS011;75140;47.754;8.840;2024-03-29T05:28:57;2.00;;;0.80;;
84877;SDS011;75140;47.754;8.840;2024-03-29T05:31:23;0.70;;;0.70;;
84877;SDS011;75140;47.754;8.840;2024-03-29T05:33:49;1.30;;;1.00;;
84877;SDS011;75140;47.754;8.840;2024-03-29T05:36:14;2.50;;;0.73;;
84877;SDS011;75140;47.754;8.840;2024-03-29T05:38:40;2.28;;;0.75;;
84877;SDS011;75140;47.754;8.840;2024-03-29T05:41:05;1.53;;;1.23;;
84877;SDS011;75140;47.754;8.840;2024-03-29T05:43:31;1.95;;;0.82;;
84877;SDS011;75140;47.754;8.840;2024-03-29T05:45:57;1.15;;;1.05;;
84877;SDS011;75140;47.754;8.840;2024-03-29T05:48:22;3.67;;;1.83;;
84877;SDS011;75140;47.754;8.840;2024-03-29T05:50:48;2.13;;;1.23;;
84877;SDS011;75140;47.754;8.840;2024-03-29T05:53:14;1.73;;;1.10;;
84877;SDS011;75140;47.754;8.840;2024-03-29T05:55:39;1.13;;;0.70;;
84877;SDS011;75140;47.754;8.840;2024-03-29T05:58:04;1.70;;;1.07;;
84877;SDS011;75140;47.754;8.840;2024-03-29T06:00:31;1.40;;;1.00;;
84877;SDS011;75140;47.754;8.840;2024-03-29T06:02:59;2.47;;;1.10;;
84877;SDS011;75140;47.754;8.840;2024-03-29T06:05:27;1.42;;;1.10;;
84877;SDS011;75140;47.754;8.840;2024-03-29T06:07:53;1.77;;;1.02;;
84877;SDS011;75140;47.754;8.840;2024-03-29T06:10:18;2.33;;;1.48;;
84877;SDS011;75140;47.754;8.840;2024-03-29T06:12:44;1.60;;;0.90;;
84877;SDS011;75140;47.754;8.840;2024-03-29T06:15:09;2.13;;;0.70;;
84877;SDS011;75140;47.754;8.840;2024-03-29T06:17:53;3.22;;;1.52;;
84877;SDS011;75140;47.754;8.840;2024-03-29T06:20:19;2.58;;;1.55;;
84877;SDS011;75140;47.754;8.840;2024-03-29T06:22:44;3.17;;;1.85;;
84877;SDS011;75140;47.754;8.840;2024-03-29T06:25:09;4.97;;;2.53;;
84877;SDS011;75140;47.754;8.840;2024-03-29T06:27:35;7.25;;;2.65;;
84877;SDS011;75140;47.754;8.840;2024-03-29T06:30:05;5.13;;;2.15;;
84877;SDS011;75140;47.754;8.840;2024-03-29T06:32:31;3.33;;;2.22;;
84877;SDS011;75140;47.754;8.840;2024-03-29T06:34:57;3.67;;;1.95;;
84877;SDS011;75140;47.754;8.840;2024-03-29T06:37:23;3.83;;;1.65;;
84877;SDS011;75140;47.754;8.840;2024-03-29T06:39:50;5.28;;;2.35;;
84877;SDS011;75140;47.754;8.840;2024-03-29T06:42:15;3.08;;;1.90;;
84877;SDS011;75140;47.754;8.840;2024-03-29T06:44:41;3.17;;;1.77;;
84877;SDS011;75140;47.754;8.840;2024-03-29T06:47:07;2.45;;;1.63;;
84877;SDS011;75140;47.754;8.840;2024-03-29T06:49:33;4.20;;;1.85;;
84877;SDS011;75140;47.754;8.840;2024-03-29T06:51:58;4.87;;;2.60;;
84877;SDS011;75140;47.754;8.840;2024-03-29T06:54:26;4.28;;;2.38;;
84877;SDS011;75140;47.754;8.840;2024-03-29T06:56:54;10.70;;;3.05;;
84877;SDS011;75140;47.754;8.840;2024-03-29T06:59:20;5.55;;;3.20;;
84877;SDS011;75140;47.754;8.840;2024-03-29T07:01:46;4.18;;;2.67;;
84877;SDS011;75140;47.754;8.840;2024-03-29T07:04:18;3.67;;;2.55;;
84877;SDS011;75140;47.754;8.840;2024-03-29T07:06:45;3.58;;;2.10;;
84877;SDS011;75140;47.754;8.840;2024-03-29T07:09:13;5.30;;;2.22;;
84877;SDS011;75140;47.754;8.840;2024-03-29T07:11:39;4.05;;;2.25;;
84877;SDS011;75140;47.754;8.840;2024-03-29T07:14:04;2.73;;;1.40;;
84877;SDS011;75140;47.754;8.840;2024-03-29T07:16:30;1.48;;;0.90;;
84877;SDS011;75140;47.754;8.840;2024-03-29T07:18:55;1.53;;;1.20;;
84877;SDS011;75140;47.754;8.840;2024-03-29T07:21:21;3.23;;;0.93;;
84877;SDS011;75140;47.754;8.840;2024-03-29T07:23:46;3.25;;;0.65;;
84877;SDS011;75140;47.754;8.840;2024-03-29T07:26:11;1.17;;;0.70;;
84877;SDS011;75140;47.754;8.840;2024-03-29T07:28:38;2.17;;;0.70;;
84877;SDS011;75140;47.754;8.840;2024-03-29T07:31:06;2.55;;;0.77;;
84877;SDS011;75140;47.754;8.840;2024-03-29T07:33:33;1.13;;;0.80;;
84877;SDS011;75140;47.754;8.840;2024-03-29T07:35:58;1.33;;;0.68;;
84877;SDS011;75140;47.754;8.840;2024-03-29T07:38:24;1.38;;;0.70;;
84877;SDS011;75140;47.754;8.840;2024-03-29T07:40:50;2.10;;;0.70;;
84877;SDS011;75140;47.754;8.840;2024-03-29T07:43:16;1.83;;;1.00;;
84877;SDS011;75140;47.754;8.840;2024-03-29T07:45:41;1.30;;;0.73;;
84877;SDS011;75140;47.754;8.840;2024-03-29T07:48:11;1.60;;;0.93;;
84877;SDS011;75140;47.754;8.840;2024-03-29T07:50:41;2.40;;;1.08;;
84877;SDS011;75140;47.754;8.840;2024-03-29T07:53:07;2.75;;;1.15;;
84877;SDS011;75140;47.754;8.840;2024-03-29T07:55:32;1.30;;;0.90;;
84877;SDS011;75140;47.754;8.840;2024-03-29T07:57:59;1.40;;;0.88;;
84877;SDS011;75140;47.754;8.840;2024-03-29T08:00:25;2.80;;;0.93;;
84877;SDS011;75140;47.754;8.840;2024-03-29T08:02:51;1.17;;;0.90;;
84877;SDS011;75140;47.754;8.840;2024-03-29T08:05:18;2.30;;;0.88;;
84877;SDS011;75140;47.754;8.840;2024-03-29T08:07:44;1.77;;;1.13;;
84877;SDS011;75140;47.754;8.840;2024-03-29T08:10:09;1.77;;;0.80;;
84877;SDS011;75140;47.754;8.840;2024-03-29T08:12:35;1.10;;;0.80;;
84877;SDS011;75140;47.754;8.840;2024-03-29T08:15:02;1.25;;;1.00;;
84877;SDS011;75140;47.754;8.840;2024-03-29T08:17:28;3.20;;;0.90;;
84877;SDS011;75140;47.754;8.840;2024-03-29T08:19:53;1.15;;;0.70;;
84877;SDS011;75140;47.754;8.840;2024-03-29T08:22:19;1.33;;;0.90;;
84877;SDS011;75140;47.754;8.840;2024-03-29T08:24:45;1.38;;;1.00;;
84877;SDS011;75140;47.754;8.840;2024-03-29T08:27:11;3.03;;;1.30;;
84877;SDS011;75140;47.754;8.840;2024-03-29T08:29:36;1.87;;;0.90;;
84877;SDS011;75140;47.754;8.840;2024-03-29T08:32:02;2.15;;;1.20;;
84877;SDS011;75140;47.754;8.840;2024-03-29T08:34:28;2.10;;;0.68;;
84877;SDS011;75140;47.754;8.840;2024-03-29T08:36:59;2.67;;;1.17;;
84877;SDS011;75140;47.754;8.840;2024-03-29T08:39:25;1.38;;;0.70;;
84877;SDS011;75140;47.754;8.840;2024-03-29T08:41:51;1.70;;;0.73;;
84877;SDS011;75140;47.754;8.840;2024-03-29T08:44:16;1.47;;;0.80;;
84877;SDS011;75140;47.754;8.840;2024-03-29T08:46:41;2.60;;;0.80;;
84877;SDS011;75140;47.754;8.840;2024-03-29T08:49:07;1.17;;;0.77;;
84877;SDS011;75140;47.754;8.840;2024-03-29T08:51:32;1.47;;;0.80;;
84877;SDS011;75140;47.754;8.840;2024-03-29T08:53:57;1.37;;;0.97;;
84877;SDS011;75140;47.754;8.840;2024-03-29T08:56:23;1.30;;;0.90;;
84877;SDS011;75140;47.754;8.840;2024-03-29T08:58:49;1.90;;;0.70;;
84877;SDS011;75140;47.754;8.840;2024-03-29T09:01:14;1.20;;;1.00;;
84877;SDS011;75140;47.754;8.840;2024-03-29T09:03:40;3.70;;;0.90;;
84877;SDS011;75140;47.754;8.840;2024-03-29T09:06:05;2.35;;;1.25;;
84877;SDS011;75140;47.754;8.840;2024-03-29T09:08:31;2.00;;;1.20;;
84877;SDS011;75140;47.754;8.840;2024-03-29T09:10:56;0.80;;;0.70;;
84877;SDS011;75140;47.754;8.840;2024-03-29T09:13:23;1.10;;;0.60;;
84877;SDS011;75140;47.754;8.840;2024-03-29T09:15:48;1.30;;;0.73;;
84877;SDS011;75140;47.754;8.840;2024-03-29T09:18:14;1.05;;;0.70;;
84877;SDS011;75140;47.754;8.840;2024-03-29T09:20:55;1.20;;;0.82;;
84877;SDS011;75140;47.754;8.840;2024-03-29T09:23:21;1.58;;;0.77;;
84877;SDS011;75140;47.754;8.840;2024-03-29T09:25:48;1.27;;;0.80;;
84877;SDS011;75140;47.754;8.840;2024-03-29T09:28:13;1.10;;;0.73;;
84877;SDS011;75140;47.754;8.840;2024-03-29T09:30:39;2.15;;;0.90;;
84877;SDS011;75140;47.754;8.840;2024-03-29T09:33:04;4.97;;;1.37;;
84877;SDS011;75140;47.754;8.840;2024-03-29T09:35:34;2.85;;;1.02;;
84877;SDS011;75140;47.754;8.840;2024-03-29T09:37:59;2.30;;;1.10;;
84877;SDS011;75140;47.754;8.840;2024-03-29T09:40:25;1.92;;;1.20;;
84877;SDS011;75140;47.754;8.840;2024-03-29T09:42:52;2.22;;;1.23;;
84877;SDS011;75140;47.754;8.840;2024-03-29T09:45:18;2.20;;;1.02;;
84877;SDS011;75140;47.754;8.840;2024-03-29T09:47:45;1.60;;;0.77;;
84877;SDS011;75140;47.754;8.840;2024-03-29T09:50:11;3.17;;;1.30;;
84877;SDS011;75140;47.754;8.840;2024-03-29T09:52:37;1.80;;;0.65;;
84877;SDS011;75140;47.754;8.840;2024-03-29T09:55:04;1.63;;;1.15;;
84877;SDS011;75140;47.754;8.840;2024-03-29T09:57:32;1.52;;;0.70;;
84877;SDS011;75140;47.754;8.840;2024-03-29T09:59:57;2.35;;;0.80;;
84877;SDS011;75140;47.754;8.840;2024-03-29T10:02:25;2.17;;;0.70;;
84877;SDS011;75140;47.754;8.840;2024-03-29T10:04:53;1.77;;;0.50;;
84877;SDS011;75140;47.754;8.840;2024-03-29T10:07:20;1.88;;;0.80;;
84877;SDS011;75140;47.754;8.840;2024-03-29T10:09:47;1.65;;;1.38;;
84877;SDS011;75140;47.754;8.840;2024-03-29T10:12:13;0.93;;;0.63;;
84877;SDS011;75140;47.754;8.840;2024-03-29T10:14:48;1.65;;;0.70;;
84877;SDS011;75140;47.754;8.840;2024-03-29T10:17:18;2.55;;;0.70;;
84877;SDS011;75140;47.754;8.840;2024-03-29T10:19:44;1.75;;;1.15;;
84877;SDS011;75140;47.754;8.840;2024-03-29T10:22:10;1.25;;;0.73;;
84877;SDS011;75140;47.754;8.840;2024-03-29T10:24:36;1.70;;;0.97;;
84877;SDS011;75140;47.754;8.840;2024-03-29T10:27:02;1.17;;;0.70;;
84877;SDS011;75140;47.754;8.840;2024-03-29T10:29:30;2.63;;;0.63;;
84877;SDS011;75140;47.754;8.840;2024-03-29T10:31:56;0.77;;;0.63;;
84877;SDS011;75140;47.754;8.840;2024-03-29T10:34:24;1.10;;;0.52;;
84877;SDS011;75140;47.754;8.840;2024-03-29T10:36:50;1.38;;;0.45;;
84877;SDS011;75140;47.754;8.840;2024-03-29T10:39:16;0.73;;;0.50;;
84877;SDS011;75140;47.754;8.840;2024-03-29T10:41:42;0.85;;;0.40;;
84877;SDS011;75140;47.754;8.840;2024-03-29T10:44:09;1.85;;;0.82;;
84877;SDS011;75140;47.754;8.840;2024-03-29T10:46:37;1.67;;;0.70;;
84877;SDS011;75140;47.754;8.840;2024-03-29T10:49:04;2.17;;;0.77;;
84877;SDS011;75140;47.754;8.840;2024-03-29T10:51:32;1.65;;;1.00;;
84877;SDS011;75140;47.754;8.840;2024-03-29T10:53:59;1.65;;;0.70;;
84877;SDS011;75140;47.754;8.840;2024-03-29T10:56:26;1.52;;;0.75;;
84877;SDS011;75140;47.754;8.840;2024-03-29T10:58:53;0.98;;;0.50;;
84877;SDS011;75140;47.754;8.840;2024-03-29T11:01:24;1.38;;;0.40;;
84877;SDS011;75140;47.754;8.840;2024-03-29T11:03:54;1.00;;;0.70;;
84877;SDS011;75140;47.754;8.840;2024-03-29T11:06:28;0.50;;;0.32;;
84877;SDS011;75140;47.754;8.840;2024-03-29T11:08:56;1.77;;;0.80;;
84877;SDS011;75140;47.754;8.840;2024-03-29T11:11:23;0.73;;;0.70;;
84877;SDS011;75140;47.754;8.840;2024-03-29T11:14:02;1.88;;;0.93;;
84877;SDS011;75140;47.754;8.840;2024-03-29T11:16:29;1.67;;;0.50;;
84877;SDS011;75140;47.754;8.840;2024-03-29T11:18:54;1.50;;;0.65;;
84877;SDS011;75140;47.754;8.840;2024-03-29T11:21:20;0.75;;;0.43;;
84877;SDS011;75140;47.754;8.840;2024-03-29T11:23:49;1.02;;;0.50;;
84877;SDS011;75140;47.754;8.840;2024-03-29T11:26:16;1.38;;;0.50;;
84877;SDS011;75140;47.754;8.840;2024-03-29T11:28:47;1.02;;;0.70;;
84877;SDS011;75140;47.754;8.840;2024-03-29T11:31:14;1.23;;;0.65;;
84877;SDS011;75140;47.754;8.840;2024-03-29T11:36:15;0.43;;;0.40;;
84877;SDS011;75140;47.754;8.840;2024-03-29T11:38:46;2.15;;;0.47;;
84877;SDS011;75140;47.754;8.840;2024-03-29T11:41:13;1.00;;;0.70;;
84877;SDS011;75140;47.754;8.840;2024-03-29T11:43:39;0.82;;;0.50;;
84877;SDS011;75140;47.754;8.840;2024-03-29T11:46:07;1.30;;;0.50;;
84877;SDS011;75140;47.754;8.840;2024-03-29T11:48:34;0.50;;;0.45;;
84877;SDS011;75140;47.754;8.840;2024-03-29T11:51:01;3.00;;;0.90;;
84877;SDS011;75140;47.754;8.840;2024-03-29T11:53:28;1.08;;;0.40;;
84877;SDS011;75140;47.754;8.840;2024-03-29T11:55:55;0.30;;;0.22;;
84877;SDS011;75140;47.754;8.840;2024-03-29T11:58:22;1.00;;;0.60;;
84877;SDS011;75140;47.754;8.840;2024-03-29T12:00:52;1.20;;;0.40;;
84877;SDS011;75140;47.754;8.840;2024-03-29T12:05:45;1.75;;;0.50;;
84877;SDS011;75140;47.754;8.840;2024-03-29T12:08:12;0.70;;;0.35;;
84877;SDS011;75140;47.754;8.840;2024-03-29T12:10:38;0.95;;;0.20;;
84877;SDS011;75140;47.754;8.840;2024-03-29T12:13:07;1.05;;;0.25;;
84877;SDS011;75140;47.754;8.840;2024-03-29T12:15:33;0.60;;;0.40;;
84877;SDS011;75140;47.754;8.840;2024-03-29T12:18:05;1.00;;;0.52;;
84877;SDS011;75140;47.754;8.840;2024-03-29T12:20:31;2.53;;;0.52;;
84877;SDS011;75140;47.754;8.840;2024-03-29T12:23:01;0.77;;;0.40;;
84877;SDS011;75140;47.754;8.840;2024-03-29T12:25:30;1.13;;;0.40;;
84877;SDS011;75140;47.754;8.840;2024-03-29T12:27:57;0.93;;;0.40;;
84877;SDS011;75140;47.754;8.840;2024-03-29T12:30:23;0.40;;;0.40;;
84877;SDS011;75140;47.754;8.840;2024-03-29T12:32:59;1.08;;;0.65;;
84877;SDS011;75140;47.754;8.840;2024-03-29T12:35:32;2.33;;;0.93;;
84877;SDS011;75140;47.754;8.840;2024-03-29T12:37:59;0.70;;;0.40;;
84877;SDS011;75140;47.754;8.840;2024-03-29T12:40:26;0.80;;;0.45;;
84877;SDS011;75140;47.754;8.840;2024-03-29T12:42:54;1.20;;;0.63;;
84877;SDS011;75140;47.754;8.840;2024-03-29T12:45:22;3.92;;;1.23;;
84877;SDS011;75140;47.754;8.840;2024-03-29T12:47:48;1.08;;;0.40;;
84877;SDS011;75140;47.754;8.840;2024-03-29T12:52:53;1.67;;;0.57;;
84877;SDS011;75140;47.754;8.840;2024-03-29T12:55:20;2.60;;;0.77;;
84877;SDS011;75140;47.754;8.840;2024-03-29T12:57:46;0.50;;;0.30;;
84877;SDS011;75140;47.754;8.840;2024-03-29T13:00:12;0.75;;;0.47;;
84877;SDS011;75140;47.754;8.840;2024-03-29T13:02:37;0.40;;;0.32;;
84877;SDS011;75140;47.754;8.840;2024-03-29T13:05:06;1.90;;;0.63;;
84877;SDS011;75140;47.754;8.840;2024-03-29T13:07:32;0.95;;;0.40;;
84877;SDS011;75140;47.754;8.840;2024-03-29T13:09:59;0.82;;;0.38;;
84877;SDS011;75140;47.754;8.840;2024-03-29T13:12:28;1.00;;;0.65;;
84877;SDS011;75140;47.754;8.840;2024-03-29T13:14:55;1.38;;;0.70;;
84877;SDS011;75140;47.754;8.840;2024-03-29T13:17:20;1.08;;;0.50;;
84877;SDS011;75140;47.754;8.840;2024-03-29T13:19:46;1.70;;;0.60;;
84877;SDS011;75140;47.754;8.840;2024-03-29T13:22:11;1.33;;;0.50;;
84877;SDS011;75140;47.754;8.840;2024-03-29T13:24:36;0.97;;;0.30;;
84877;SDS011;75140;47.754;8.840;2024-03-29T13:29:32;1.38;;;0.70;;
84877;SDS011;75140;47.754;8.840;2024-03-29T13:31:58;0.68;;;0.43;;
84877;SDS011;75140;47.754;8.840;2024-03-29T13:34:23;0.77;;;0.63;;
84877;SDS011;75140;47.754;8.840;2024-03-29T13:36:49;0.70;;;0.60;;
84877;SDS011;75140;47.754;8.840;2024-03-29T13:39:14;1.03;;;0.43;;
84877;SDS011;75140;47.754;8.840;2024-03-29T13:41:40;0.68;;;0.40;;
84877;SDS011;75140;47.754;8.840;2024-03-29T13:44:06;0.93;;;0.47;;
84877;SDS011;75140;47.754;8.840;2024-03-29T13:46:32;0.50;;;0.32;;
84877;SDS011;75140;47.754;8.840;2024-03-29T13:48:59;1.73;;;0.63;;
84877;SDS011;75140;47.754;8.840;2024-03-29T13:51:24;1.17;;;0.30;;
84877;SDS011;75140;47.754;8.840;2024-03-29T13:53:49;1.77;;;0.60;;
84877;SDS011;75140;47.754;8.840;2024-03-29T13:56:15;0.73;;;0.47;;
84877;SDS011;75140;47.754;8.840;2024-03-29T13:58:40;0.52;;;0.30;;
84877;SDS011;75140;47.754;8.840;2024-03-29T14:01:05;1.40;;;0.50;;
84877;SDS011;75140;47.754;8.840;2024-03-29T14:03:31;0.77;;;0.32;;
84877;SDS011;75140;47.754;8.840;2024-03-29T14:05:56;1.35;;;0.47;;
84877;SDS011;75140;47.754;8.840;2024-03-29T14:08:22;1.15;;;0.60;;
84877;SDS011;75140;47.754;8.840;2024-03-29T14:10:47;0.93;;;0.57;;
84877;SDS011;75140;47.754;8.840;2024-03-29T14:13:14;2.15;;;0.77;;
84877;SDS011;75140;47.754;8.840;2024-03-29T14:15:40;0.55;;;0.40;;
84877;SDS011;75140;47.754;8.840;2024-03-29T14:18:06;1.90;;;0.57;;
84877;SDS011;75140;47.754;8.840;2024-03-29T14:20:31;0.70;;;0.40;;
84877;SDS011;75140;47.754;8.840;2024-03-29T14:22:57;1.53;;;0.60;;
84877;SDS011;75140;47.754;8.840;2024-03-29T14:25:28;0.65;;;0.43;;
84877;SDS011;75140;47.754;8.840;2024-03-29T14:27:53;2.23;;;0.80;;
84877;SDS011;75140;47.754;8.840;2024-03-29T14:30:24;0.73;;;0.50;;
84877;SDS011;75140;47.754;8.840;2024-03-29T14:32:52;1.23;;;0.47;;
84877;SDS011;75140;47.754;8.840;2024-03-29T14:35:18;0.52;;;0.43;;
84877;SDS011;75140;47.754;8.840;2024-03-29T14:37:44;1.42;;;0.63;;
84877;SDS011;75140;47.754;8.840;2024-03-29T14:40:10;1.65;;;0.40;;
84877;SDS011;75140;47.754;8.840;2024-03-29T14:42:37;0.60;;;0.40;;
84877;SDS011;75140;47.754;8.840;2024-03-29T14:45:03;1.42;;;0.95;;
84877;SDS011;75140;47.754;8.840;2024-03-29T14:47:31;0.80;;;0.45;;
84877;SDS011;75140;47.754;8.840;2024-03-29T14:49:57;0.52;;;0.28;;
84877;SDS011;75140;47.754;8.840;2024-03-29T14:52:23;0.63;;;0.28;;
84877;SDS011;75140;47.754;8.840;2024-03-29T14:54:49;1.00;;;0.60;;